createdAt,value
2017-12-04T20:01:00.305Z,102417.47
2017-12-04T20:04:10.769Z,102418.43
2017-12-04T20:06:36.536Z,102421.14
2017-12-04T20:09:02.315Z,102419.77
2017-12-04T20:11:28.076Z,102414.12
2017-12-04T20:13:53.852Z,102417.22
2017-12-04T20:16:19.612Z,102416.77
2017-12-04T20:18:45.380Z,102414.63
2017-12-04T20:21:11.157Z,102414.83
2017-12-04T20:23:36.925Z,102415.16
2017-12-04T20:26:02.688Z,102413.63
2017-12-04T20:28:28.448Z,102411.24
2017-12-04T20:30:54.331Z,102413.50
2017-12-04T20:33:20.108Z,102415.11
2017-12-04T20:35:45.992Z,102404.77
2017-12-04T20:38:11.735Z,102405.79
2017-12-04T20:40:37.507Z,102409.98
2017-12-04T20:43:03.253Z,102412.63
2017-12-04T20:45:29.046Z,102412.50
2017-12-04T20:47:54.835Z,102404.81
2017-12-04T20:50:20.627Z,102401.10
2017-12-04T20:52:46.398Z,102406.94
2017-12-04T20:55:12.213Z,102409.61
2017-12-04T20:57:37.971Z,102415.08
2017-12-04T21:00:03.738Z,102403.38
2017-12-04T21:02:29.522Z,102418.11
2017-12-04T21:04:55.302Z,102410.73
2017-12-04T21:07:31.043Z,102416.59
2017-12-04T21:10:09.297Z,102409.05
2017-12-04T21:12:35.084Z,102414.94
2017-12-04T21:15:13.215Z,102408.69
2017-12-04T21:17:38.993Z,102398.17
2017-12-04T21:20:04.743Z,102387.98
2017-12-04T21:22:30.528Z,102389.48
2017-12-04T21:24:56.304Z,102388.00
2017-12-04T21:27:22.101Z,102387.70
2017-12-04T21:29:47.876Z,102389.92
2017-12-04T21:32:13.644Z,102392.11
2017-12-04T21:34:39.592Z,102383.09
2017-12-04T21:37:05.463Z,102388.28
2017-12-04T21:39:31.220Z,102382.02
2017-12-04T21:41:56.971Z,102380.27
2017-12-04T21:44:22.744Z,102383.71
2017-12-04T21:46:48.549Z,102372.20
2017-12-04T21:49:14.318Z,102372.64
2017-12-04T21:51:40.080Z,102373.36
2017-12-04T21:54:05.864Z,102364.19
2017-12-04T21:56:31.651Z,102368.41
2017-12-04T21:58:57.422Z,102374.14
2017-12-04T22:01:23.192Z,102368.73
2017-12-04T22:03:48.972Z,102362.91
2017-12-04T22:06:14.748Z,102365.97
2017-12-04T22:08:40.527Z,102360.17
2017-12-04T22:11:06.288Z,102366.48
2017-12-04T22:13:32.061Z,102365.33
2017-12-04T22:15:57.823Z,102360.52
2017-12-04T22:18:23.592Z,102367.96
2017-12-04T22:20:49.361Z,102366.63
2017-12-04T22:23:15.158Z,102368.70
2017-12-04T22:25:40.922Z,102360.78
2017-12-04T22:28:06.674Z,102361.80
2017-12-04T22:30:32.500Z,102356.51
2017-12-04T22:32:58.420Z,102360.66
2017-12-04T22:35:24.260Z,102360.80
2017-12-04T22:37:50.009Z,102359.47
2017-12-04T22:40:15.772Z,102359.53
2017-12-04T22:42:41.617Z,102358.22
2017-12-04T22:45:07.400Z,102359.71
2017-12-04T22:47:33.261Z,102355.83
2017-12-04T22:49:59.023Z,102360.64
2017-12-04T22:52:24.780Z,102362.08
2017-12-04T22:54:50.583Z,102358.89
2017-12-04T22:57:16.336Z,102356.91
2017-12-04T22:59:42.100Z,102358.22
2017-12-04T23:02:07.917Z,102353.56
2017-12-04T23:04:33.704Z,102359.73
2017-12-04T23:06:59.493Z,102361.59
2017-12-04T23:09:25.262Z,102357.22
2017-12-04T23:11:51.024Z,102364.83
2017-12-04T23:14:16.816Z,102357.78
2017-12-04T23:16:42.584Z,102374.62
2017-12-04T23:19:08.365Z,102372.46
2017-12-04T23:21:34.208Z,102370.30
2017-12-04T23:23:59.964Z,102373.00
2017-12-04T23:26:25.721Z,102371.84
2017-12-04T23:28:51.485Z,102372.28
2017-12-04T23:33:49.898Z,102379.89
2017-12-04T23:36:15.684Z,102373.35
2017-12-04T23:38:41.444Z,102375.96
2017-12-04T23:41:07.209Z,102381.30
2017-12-04T23:43:32.970Z,102379.13
2017-12-04T23:46:05.707Z,102376.61
2017-12-04T23:48:31.470Z,102376.08
2017-12-04T23:50:57.240Z,102373.06
2017-12-04T23:53:22.995Z,102373.92
2017-12-04T23:55:48.772Z,102377.08
2017-12-04T23:58:14.536Z,102380.11
